createdAt,value
2023-01-19T00:00:46.615Z,0.00
2023-01-19T00:01:46.617Z,0.00
2023-01-19T00:02:46.631Z,0.00
2023-01-19T00:03:46.596Z,0.00
2023-01-19T00:04:46.576Z,0.00
2023-01-19T00:05:46.634Z,0.00
2023-01-19T00:06:46.555Z,0.00
2023-01-19T00:07:46.553Z,0.00
2023-01-19T00:08:46.573Z,0.00
2023-01-19T00:09:46.536Z,0.00
2023-01-19T00:10:46.514Z,0.00
2023-01-19T00:11:46.544Z,0.00
2023-01-19T00:12:46.517Z,0.00
2023-01-19T00:13:46.493Z,0.00
2023-01-19T00:14:46.478Z,0.00
2023-01-19T00:15:46.466Z,0.00
2023-01-19T00:16:46.472Z,0.00
2023-01-19T00:17:46.451Z,0.00
2023-01-19T00:18:46.435Z,0.00
2023-01-19T00:19:46.422Z,0.00
2023-01-19T00:20:46.433Z,0.00
2023-01-19T00:21:46.423Z,0.00
2023-01-19T00:22:46.391Z,0.00
2023-01-19T00:23:46.392Z,0.00
2023-01-19T00:24:46.371Z,0.00
2023-01-19T00:25:46.373Z,0.00
2023-01-19T00:26:46.400Z,0.00
2023-01-19T00:27:46.351Z,0.00
2023-01-19T00:28:46.334Z,0.00
2023-01-19T00:29:46.328Z,0.00
2023-01-19T00:30:46.314Z,0.00
2023-01-19T00:31:46.402Z,0.00
2023-01-19T00:32:46.289Z,0.00
2023-01-19T00:33:46.280Z,0.00
2023-01-19T00:34:46.279Z,0.00
2023-01-19T00:35:46.259Z,0.00
2023-01-19T00:36:46.300Z,0.00
2023-01-19T00:37:46.316Z,0.00
2023-01-19T00:38:46.281Z,0.00
2023-01-19T00:39:46.288Z,0.00
2023-01-19T00:40:46.246Z,0.00
2023-01-19T00:41:46.263Z,0.00
2023-01-19T00:42:46.236Z,0.00
2023-01-19T00:43:46.247Z,0.00
2023-01-19T00:44:46.239Z,0.00
2023-01-19T00:45:46.262Z,0.00
2023-01-19T00:46:46.251Z,0.00
2023-01-19T00:47:46.198Z,0.00
2023-01-19T00:48:46.262Z,0.00
2023-01-19T00:49:46.169Z,0.00
2023-01-19T00:50:46.158Z,0.00
2023-01-19T00:51:46.155Z,0.00
2023-01-19T00:52:46.118Z,0.00
2023-01-19T00:53:46.119Z,0.00
2023-01-19T00:54:46.148Z,0.00
2023-01-19T00:55:46.101Z,0.00
2023-01-19T00:56:46.098Z,0.00
2023-01-19T00:57:46.097Z,0.00
2023-01-19T00:58:46.056Z,0.00
2023-01-19T00:59:46.059Z,0.00
2023-01-19T01:00:46.098Z,0.00
2023-01-19T01:01:46.627Z,0.00
2023-01-19T01:02:46.193Z,0.00
2023-01-19T01:03:46.011Z,0.00
2023-01-19T01:04:45.983Z,0.00
2023-01-19T01:05:45.988Z,0.00
2023-01-19T01:06:45.967Z,0.00
2023-01-19T01:07:45.937Z,0.00
2023-01-19T01:08:45.922Z,0.00
2023-01-19T01:09:45.925Z,0.00
2023-01-19T01:10:45.913Z,0.00
2023-01-19T01:11:45.916Z,0.00
2023-01-19T01:12:56.060Z,0.00
2023-01-19T01:13:46.885Z,0.00
2023-01-19T01:14:45.864Z,0.00
2023-01-19T01:15:45.867Z,0.00
2023-01-19T01:16:45.951Z,0.00
2023-01-19T01:17:45.842Z,0.00
2023-01-19T01:18:45.846Z,0.00
2023-01-19T01:19:45.828Z,0.00
2023-01-19T01:20:45.837Z,0.00
2023-01-19T01:21:45.824Z,0.00
2023-01-19T01:22:45.814Z,0.00
2023-01-19T01:23:45.795Z,0.00
2023-01-19T01:24:45.806Z,0.00
2023-01-19T01:25:45.811Z,0.00
2023-01-19T01:26:45.762Z,0.00
2023-01-19T01:27:45.757Z,0.00
2023-01-19T01:28:45.729Z,0.00
2023-01-19T01:29:45.730Z,0.00
2023-01-19T01:30:45.712Z,0.00
2023-01-19T01:31:45.728Z,0.00
2023-01-19T01:32:45.728Z,0.00
2023-01-19T01:33:45.675Z,0.00
2023-01-19T01:34:45.662Z,0.00
2023-01-19T01:35:45.651Z,0.00
2023-01-19T01:36:45.639Z,0.00
2023-01-19T01:37:45.644Z,0.00
2023-01-19T01:38:45.667Z,0.00
2023-01-19T01:39:45.613Z,0.00
2023-01-19T01:40:45.588Z,0.00
2023-01-19T01:41:45.590Z,0.00
2023-01-19T01:42:45.646Z,0.00
2023-01-19T01:43:45.587Z,0.00
2023-01-19T01:44:45.576Z,0.00
2023-01-19T01:45:45.584Z,0.00
2023-01-19T01:46:45.558Z,0.00
2023-01-19T01:47:45.548Z,0.00
2023-01-19T01:48:45.618Z,0.00
2023-01-19T01:49:45.510Z,0.00
2023-01-19T01:50:45.487Z,0.00
2023-01-19T01:51:45.483Z,0.00
2023-01-19T01:53:06.503Z,0.00
2023-01-19T01:53:46.458Z,0.00
2023-01-19T01:54:45.446Z,0.00
2023-01-19T01:55:45.439Z,0.00
2023-01-19T01:56:45.526Z,0.00
2023-01-19T01:57:45.447Z,0.00
2023-01-19T01:58:45.406Z,0.00
2023-01-19T01:59:45.392Z,0.00
2023-01-19T02:00:45.418Z,0.00
2023-01-19T02:01:45.456Z,0.00
2023-01-19T02:02:45.376Z,0.00
2023-01-19T02:03:45.358Z,0.00
2023-01-19T02:04:45.349Z,0.00
2023-01-19T02:05:45.353Z,0.00
2023-01-19T02:06:45.323Z,0.00
2023-01-19T02:07:45.350Z,0.00
2023-01-19T02:08:45.305Z,0.00
2023-01-19T02:09:45.292Z,0.00
2023-01-19T02:10:45.296Z,0.00
2023-01-19T02:11:45.274Z,0.00
2023-01-19T02:12:45.273Z,0.00
2023-01-19T02:13:45.283Z,0.00
2023-01-19T02:14:45.234Z,0.00
2023-01-19T02:15:45.223Z,0.00
2023-01-19T02:16:45.271Z,0.00
2023-01-19T02:17:45.240Z,0.00
2023-01-19T02:18:45.214Z,0.00
2023-01-19T02:19:45.182Z,0.00
2023-01-19T02:20:45.173Z,0.00
2023-01-19T02:21:45.159Z,0.00
2023-01-19T02:22:45.157Z,0.00
2023-01-19T02:23:45.149Z,0.00
2023-01-19T02:24:45.141Z,0.00
2023-01-19T02:25:45.112Z,0.00
2023-01-19T02:26:45.114Z,0.00
2023-01-19T02:27:45.107Z,0.00
2023-01-19T02:28:45.107Z,0.00
2023-01-19T02:29:45.081Z,0.00
2023-01-19T02:30:45.091Z,0.00
2023-01-19T02:31:45.051Z,0.00
2023-01-19T02:32:45.063Z,0.00
2023-01-19T02:33:45.043Z,0.00
2023-01-19T02:34:45.019Z,0.00
2023-01-19T02:35:45.014Z,0.00
2023-01-19T02:36:45.012Z,0.00
2023-01-19T02:37:44.990Z,0.00
2023-01-19T02:38:44.989Z,0.00
2023-01-19T02:39:44.972Z,0.00
2023-01-19T02:40:44.959Z,0.00
2023-01-19T02:41:44.948Z,0.00
2023-01-19T02:42:44.938Z,0.00
2023-01-19T02:43:44.949Z,0.00
2023-01-19T02:44:44.930Z,0.00
2023-01-19T02:45:44.942Z,0.00
2023-01-19T02:46:44.908Z,0.00
2023-01-19T02:47:44.898Z,0.00
2023-01-19T02:48:44.886Z,0.00
2023-01-19T02:49:44.861Z,0.00
2023-01-19T02:50:44.870Z,0.00
2023-01-19T02:51:44.855Z,0.00
2023-01-19T02:52:44.852Z,0.00
2023-01-19T02:53:44.846Z,0.00
2023-01-19T02:54:44.835Z,0.00
2023-01-19T02:55:44.851Z,0.00
2023-01-19T02:56:44.805Z,0.00
2023-01-19T02:57:44.791Z,0.00
2023-01-19T02:58:44.801Z,0.00
2023-01-19T02:59:44.779Z,0.00
2023-01-19T03:00:44.766Z,0.00
2023-01-19T03:01:44.955Z,0.00
2023-01-19T03:02:45.070Z,0.00
2023-01-19T03:03:44.745Z,0.00
2023-01-19T03:04:44.715Z,0.00
2023-01-19T03:05:44.693Z,0.00
2023-01-19T03:06:44.701Z,0.00
2023-01-19T03:07:44.693Z,0.00
2023-01-19T03:08:44.713Z,0.00
2023-01-19T03:09:44.653Z,0.00
2023-01-19T03:10:44.657Z,0.00
2023-01-19T03:11:44.633Z,0.00
2023-01-19T03:12:44.623Z,0.00
2023-01-19T03:13:44.636Z,0.00
2023-01-19T03:14:44.614Z,0.00
2023-01-19T03:15:44.666Z,0.00
2023-01-19T03:16:44.623Z,0.00
2023-01-19T03:17:44.591Z,0.00
2023-01-19T03:18:44.598Z,0.00
2023-01-19T03:19:44.558Z,0.00
2023-01-19T03:20:44.560Z,0.00
2023-01-19T03:21:44.534Z,0.00
2023-01-19T03:22:44.529Z,0.00
2023-01-19T03:23:44.531Z,0.00
2023-01-19T03:24:44.527Z,0.00
2023-01-19T03:25:44.510Z,0.00
2023-01-19T03:26:44.487Z,0.00
2023-01-19T03:27:44.465Z,0.00
2023-01-19T03:28:44.492Z,0.00
2023-01-19T03:29:44.464Z,0.00
2023-01-19T03:30:44.458Z,0.00
2023-01-19T03:31:44.419Z,0.00
2023-01-19T03:32:44.432Z,0.00
2023-01-19T03:33:44.422Z,0.00
2023-01-19T03:34:44.404Z,0.00
2023-01-19T03:35:44.404Z,0.00
2023-01-19T03:36:44.398Z,0.00
2023-01-19T03:37:44.366Z,0.00
2023-01-19T03:38:44.404Z,0.00
2023-01-19T03:39:44.356Z,0.00
2023-01-19T03:40:44.339Z,0.00
2023-01-19T03:41:44.367Z,0.00
2023-01-19T03:42:44.321Z,0.00
2023-01-19T03:43:44.311Z,0.00
2023-01-19T03:44:44.298Z,0.00
2023-01-19T03:45:44.277Z,0.00
2023-01-19T03:46:44.269Z,0.00
2023-01-19T03:47:44.258Z,0.00
2023-01-19T03:48:44.267Z,0.00
2023-01-19T03:49:44.239Z,0.00
2023-01-19T03:50:44.237Z,0.00
2023-01-19T03:51:44.217Z,0.00
2023-01-19T03:52:44.234Z,0.00
2023-01-19T03:53:44.240Z,0.00
2023-01-19T03:54:44.204Z,0.00
2023-01-19T03:55:44.210Z,0.00
2023-01-19T03:56:44.194Z,0.00
2023-01-19T03:57:44.187Z,0.00
2023-01-19T03:58:44.178Z,0.00
2023-01-19T03:59:44.137Z,0.00
2023-01-19T04:00:44.139Z,0.00
2023-01-19T04:01:44.279Z,0.00
2023-01-19T04:02:44.209Z,0.00
2023-01-19T04:03:44.116Z,0.00
2023-01-19T04:04:44.135Z,0.00
2023-01-19T04:05:44.065Z,0.00
2023-01-19T04:06:44.077Z,0.00
2023-01-19T04:07:44.087Z,0.00
2023-01-19T04:08:44.045Z,0.00
2023-01-19T04:09:44.057Z,0.00
2023-01-19T04:10:44.016Z,0.00
2023-01-19T04:11:44.011Z,0.00
2023-01-19T04:12:43.994Z,0.00
2023-01-19T04:13:43.980Z,0.00
2023-01-19T04:14:44.007Z,0.00
2023-01-19T04:15:43.968Z,0.00
2023-01-19T04:16:43.953Z,0.00
2023-01-19T04:17:43.969Z,0.00
2023-01-19T04:18:43.938Z,0.00
2023-01-19T04:19:43.936Z,0.00
2023-01-19T04:20:43.923Z,0.00
2023-01-19T04:21:43.901Z,0.00
2023-01-19T04:22:43.892Z,0.00
2023-01-19T04:23:43.882Z,0.00
2023-01-19T04:24:43.876Z,0.00
2023-01-19T04:25:43.850Z,0.00
2023-01-19T04:26:43.860Z,0.00
2023-01-19T04:27:43.830Z,0.00
2023-01-19T04:28:43.819Z,0.00
2023-01-19T04:29:43.820Z,0.00
2023-01-19T04:30:43.821Z,0.00
2023-01-19T04:31:43.786Z,0.00
2023-01-19T04:32:43.779Z,0.00
2023-01-19T04:33:43.760Z,0.00
2023-01-19T04:34:43.762Z,0.00
2023-01-19T04:35:43.739Z,0.00
2023-01-19T04:36:43.761Z,0.00
2023-01-19T04:37:43.720Z,0.00
2023-01-19T04:38:43.723Z,0.00
2023-01-19T04:39:43.722Z,0.00
2023-01-19T04:40:43.699Z,0.00
2023-01-19T04:41:43.683Z,0.00
2023-01-19T04:42:43.681Z,0.00
2023-01-19T04:43:43.679Z,0.00
2023-01-19T04:44:43.657Z,0.00
2023-01-19T04:45:43.649Z,0.00
2023-01-19T04:46:43.710Z,0.00
2023-01-19T04:47:43.627Z,0.00
2023-01-19T04:48:43.613Z,0.00
2023-01-19T04:49:43.611Z,0.00
2023-01-19T04:50:43.610Z,0.00
2023-01-19T04:51:43.569Z,0.00
2023-01-19T04:52:43.569Z,0.00
2023-01-19T04:53:43.580Z,0.00
2023-01-19T04:54:43.557Z,0.00
2023-01-19T04:55:43.534Z,0.00
2023-01-19T04:56:43.525Z,0.00
2023-01-19T04:57:43.522Z,0.00
2023-01-19T04:58:43.525Z,0.00
2023-01-19T04:59:43.494Z,0.00
2023-01-19T05:00:43.484Z,0.00
2023-01-19T05:01:43.477Z,0.00
2023-01-19T05:02:43.470Z,0.00
2023-01-19T05:03:43.446Z,0.00
2023-01-19T05:04:43.455Z,0.00
2023-01-19T05:05:43.437Z,0.00
2023-01-19T05:06:43.424Z,0.00
2023-01-19T05:07:43.433Z,0.00
2023-01-19T05:08:45.253Z,0.00
2023-01-19T05:09:43.413Z,0.00
2023-01-19T05:10:43.372Z,0.00
2023-01-19T05:11:43.392Z,0.00
2023-01-19T05:12:43.361Z,0.00
2023-01-19T05:13:43.352Z,0.00
2023-01-19T05:14:43.379Z,0.00
2023-01-19T05:15:43.330Z,0.00
2023-01-19T05:16:43.353Z,0.00
2023-01-19T05:17:43.313Z,0.00
2023-01-19T05:18:43.302Z,0.00
2023-01-19T05:19:43.295Z,0.00
2023-01-19T05:20:43.300Z,0.00
2023-01-19T05:21:43.268Z,0.00
2023-01-19T05:22:43.263Z,0.00
2023-01-19T05:23:43.250Z,0.00
2023-01-19T05:24:43.252Z,0.00
2023-01-19T05:25:43.232Z,0.00
2023-01-19T05:26:43.219Z,0.00
2023-01-19T05:27:43.200Z,0.00
2023-01-19T05:28:43.199Z,0.00
2023-01-19T05:29:43.194Z,0.00
2023-01-19T05:30:43.207Z,0.00
2023-01-19T05:31:43.207Z,0.00
2023-01-19T05:32:43.160Z,0.00
2023-01-19T05:33:43.153Z,0.00
2023-01-19T05:34:43.143Z,0.00
2023-01-19T05:35:43.120Z,0.00
2023-01-19T05:36:43.111Z,0.00
2023-01-19T05:37:43.103Z,0.00
2023-01-19T05:38:43.102Z,0.00
2023-01-19T05:39:43.080Z,0.00
2023-01-19T05:40:43.089Z,0.00
2023-01-19T05:41:43.059Z,0.00
2023-01-19T05:42:43.056Z,0.00
2023-01-19T05:43:43.076Z,0.00
2023-01-19T05:44:43.028Z,0.00
2023-01-19T05:45:43.021Z,0.00
2023-01-19T05:46:43.058Z,0.00
2023-01-19T05:47:42.995Z,0.00
2023-01-19T05:48:42.992Z,0.00
2023-01-19T05:49:42.988Z,0.00
2023-01-19T05:50:42.976Z,0.00
2023-01-19T05:51:42.948Z,0.00
2023-01-19T05:52:42.957Z,0.00
2023-01-19T05:53:42.936Z,0.00
2023-01-19T05:54:42.927Z,0.00
2023-01-19T05:55:42.944Z,0.00
2023-01-19T05:56:42.918Z,0.00
2023-01-19T05:57:42.889Z,0.00
2023-01-19T05:58:42.889Z,0.00
2023-01-19T05:59:42.886Z,0.00
2023-01-19T06:00:42.875Z,0.00
2023-01-19T06:01:42.932Z,0.00
2023-01-19T06:02:42.910Z,0.00
2023-01-19T06:03:42.837Z,0.00
2023-01-19T06:04:42.824Z,0.00
2023-01-19T06:05:42.821Z,0.00
2023-01-19T06:06:42.809Z,0.00
2023-01-19T06:07:42.797Z,0.00
2023-01-19T06:08:42.826Z,0.00
2023-01-19T06:09:42.783Z,0.00
2023-01-19T06:10:42.779Z,0.00
2023-01-19T06:11:42.767Z,0.00
2023-01-19T06:12:42.750Z,0.00
2023-01-19T06:13:42.796Z,0.00
2023-01-19T06:14:42.730Z,0.00
2023-01-19T06:15:42.737Z,0.00
2023-01-19T06:16:42.811Z,0.00
2023-01-19T06:17:42.713Z,0.00
2023-01-19T06:18:42.702Z,0.00
2023-01-19T06:19:42.666Z,0.00
2023-01-19T06:20:42.668Z,0.00
2023-01-19T06:21:42.646Z,0.00
2023-01-19T06:22:42.636Z,0.00
2023-01-19T06:23:42.631Z,0.00
2023-01-19T06:24:42.626Z,0.00
2023-01-19T06:25:42.661Z,0.00
2023-01-19T06:26:42.610Z,0.00
2023-01-19T06:27:42.581Z,0.00
2023-01-19T06:28:42.585Z,0.00
2023-01-19T06:29:42.689Z,0.00
2023-01-19T06:30:42.593Z,0.00
2023-01-19T06:31:42.604Z,0.00
2023-01-19T06:32:42.536Z,0.00
2023-01-19T06:33:42.524Z,0.00
2023-01-19T06:34:42.501Z,0.00
2023-01-19T06:35:42.520Z,0.00
2023-01-19T06:36:42.487Z,0.00
2023-01-19T06:37:42.480Z,0.00
2023-01-19T06:38:42.479Z,0.00
2023-01-19T06:39:42.463Z,0.00
2023-01-19T06:40:42.517Z,0.00
2023-01-19T06:41:42.464Z,0.00
2023-01-19T06:42:42.419Z,0.00
2023-01-19T06:43:42.418Z,0.00
2023-01-19T06:44:42.398Z,0.00
2023-01-19T06:45:44.528Z,0.00
2023-01-19T06:46:42.445Z,0.00
2023-01-19T06:47:42.379Z,0.00
2023-01-19T06:48:42.452Z,0.00
2023-01-19T06:49:42.401Z,0.00
2023-01-19T06:50:42.336Z,0.00
2023-01-19T06:51:42.337Z,0.00
2023-01-19T06:52:42.496Z,0.00
2023-01-19T06:53:42.352Z,0.00
2023-01-19T06:54:42.307Z,0.00
2023-01-19T06:55:42.304Z,0.00
2023-01-19T06:56:42.278Z,0.00
2023-01-19T06:57:42.275Z,0.00
2023-01-19T06:58:42.256Z,0.00
2023-01-19T06:59:42.213Z,1.00
2023-01-19T07:00:42.260Z,1.00
2023-01-19T07:01:42.326Z,1.00
2023-01-19T07:02:42.287Z,1.00
2023-01-19T07:03:42.184Z,2.00
2023-01-19T07:04:42.276Z,2.00
2023-01-19T07:05:42.143Z,2.00
2023-01-19T07:06:42.119Z,2.00
2023-01-19T07:07:42.166Z,3.00
2023-01-19T07:08:42.095Z,3.00
2023-01-19T07:09:42.159Z,3.00
2023-01-19T07:11:24.563Z,4.00
2023-01-19T07:11:43.066Z,2.00
2023-01-19T07:12:42.062Z,3.00
2023-01-19T07:13:42.051Z,4.00
2023-01-19T07:14:42.035Z,5.00
2023-01-19T07:15:42.033Z,8.00
2023-01-19T07:16:42.039Z,8.00
2023-01-19T07:17:42.050Z,10.00
2023-01-19T07:18:41.985Z,14.00
2023-01-19T07:19:41.982Z,14.00
2023-01-19T07:20:42.018Z,14.00
2023-01-19T07:21:41.961Z,15.00
2023-01-19T07:22:41.957Z,15.00
2023-01-19T07:23:41.942Z,18.00
2023-01-19T07:24:41.925Z,19.00
2023-01-19T07:25:41.952Z,18.00
2023-01-19T07:26:41.904Z,17.00
2023-01-19T07:27:41.904Z,17.00
2023-01-19T07:28:41.890Z,20.00
2023-01-19T07:29:41.880Z,21.00
2023-01-19T07:30:41.924Z,22.00
2023-01-19T07:31:41.955Z,22.00
2023-01-19T07:32:41.843Z,22.00
2023-01-19T07:33:41.839Z,25.00
2023-01-19T07:34:41.923Z,25.00
2023-01-19T07:35:41.840Z,26.00
2023-01-19T07:36:41.811Z,25.00
2023-01-19T07:37:41.799Z,23.00
2023-01-19T07:38:41.805Z,20.00
2023-01-19T07:39:41.778Z,22.00
2023-01-19T07:40:41.802Z,20.00
2023-01-19T07:41:41.760Z,19.00
2023-01-19T07:42:41.760Z,25.00
2023-01-19T07:43:41.735Z,20.00
2023-01-19T07:44:41.732Z,24.00
2023-01-19T07:45:41.752Z,25.00
2023-01-19T07:46:41.700Z,22.00
2023-01-19T07:47:41.690Z,34.00
2023-01-19T07:48:41.679Z,30.00
2023-01-19T07:49:41.669Z,33.00
2023-01-19T07:50:41.668Z,43.00
2023-01-19T07:51:41.659Z,65.00
2023-01-19T07:52:41.637Z,76.00
2023-01-19T07:53:41.629Z,73.00
2023-01-19T07:54:41.615Z,88.00
2023-01-19T07:55:41.634Z,87.00
2023-01-19T07:56:41.605Z,91.00
2023-01-19T07:57:41.592Z,103.00
2023-01-19T07:58:41.581Z,94.00
2023-01-19T07:59:41.574Z,126.00
2023-01-19T08:00:41.545Z,89.00
2023-01-19T08:01:41.731Z,200.00
2023-01-19T08:02:41.529Z,235.00
2023-01-19T08:03:41.526Z,226.00
2023-01-19T08:04:41.519Z,172.00
2023-01-19T08:05:41.502Z,165.00
2023-01-19T08:06:41.496Z,163.00
2023-01-19T08:07:41.519Z,165.00
2023-01-19T08:08:41.456Z,225.00
2023-01-19T08:09:41.466Z,201.00
2023-01-19T08:10:41.457Z,199.00
2023-01-19T08:11:41.438Z,174.00
2023-01-19T08:12:41.434Z,197.00
2023-01-19T08:13:41.414Z,174.00
2023-01-19T08:14:41.398Z,146.00
2023-01-19T08:15:41.450Z,187.00
2023-01-19T08:16:41.418Z,136.00
2023-01-19T08:17:41.363Z,219.00
2023-01-19T08:18:41.352Z,147.00
2023-01-19T08:19:41.645Z,334.00
2023-01-19T08:20:41.356Z,243.00
2023-01-19T08:21:41.338Z,260.00
2023-01-19T08:22:41.319Z,289.00
2023-01-19T08:23:41.433Z,289.00
2023-01-19T08:24:41.314Z,303.00
2023-01-19T08:25:41.332Z,272.00
2023-01-19T08:26:41.325Z,274.00
2023-01-19T08:27:41.281Z,262.00
2023-01-19T08:28:41.260Z,211.00
2023-01-19T08:29:41.283Z,218.00
2023-01-19T08:30:41.360Z,231.00
2023-01-19T08:31:41.332Z,222.00
2023-01-19T08:32:41.202Z,194.00
2023-01-19T08:33:41.204Z,200.00
2023-01-19T08:34:41.185Z,156.00
2023-01-19T08:35:41.195Z,161.00
2023-01-19T08:36:41.187Z,257.00
2023-01-19T08:37:41.199Z,250.00
2023-01-19T08:38:41.151Z,268.00
2023-01-19T08:39:41.146Z,330.00
2023-01-19T08:40:41.131Z,365.00
2023-01-19T08:41:41.133Z,280.00
2023-01-19T08:42:41.134Z,359.00
2023-01-19T08:43:41.098Z,368.00
2023-01-19T08:44:49.653Z,383.00
2023-01-19T08:45:42.079Z,356.00
2023-01-19T08:46:41.128Z,235.00
2023-01-19T08:47:41.083Z,267.00
2023-01-19T08:48:41.048Z,321.00
2023-01-19T08:49:41.039Z,431.00
2023-01-19T08:50:41.073Z,476.00
2023-01-19T08:51:41.052Z,351.00
2023-01-19T08:52:41.036Z,509.00
2023-01-19T08:53:41.076Z,513.00
2023-01-19T08:54:40.977Z,563.00
2023-01-19T08:55:40.983Z,661.00
2023-01-19T08:56:41.078Z,702.00
2023-01-19T08:57:40.959Z,636.00
2023-01-19T08:58:40.961Z,627.00
2023-01-19T08:59:40.975Z,502.00
2023-01-19T09:00:40.949Z,337.00
2023-01-19T09:01:41.018Z,336.00
2023-01-19T09:02:40.975Z,344.00
2023-01-19T09:03:40.887Z,493.00
2023-01-19T09:04:40.873Z,463.00
2023-01-19T09:05:40.888Z,416.00
2023-01-19T09:06:40.845Z,503.00
2023-01-19T09:07:40.844Z,581.00
2023-01-19T09:08:40.826Z,639.00
2023-01-19T09:09:40.833Z,593.00
2023-01-19T09:10:40.804Z,438.00
2023-01-19T09:11:40.803Z,473.00
2023-01-19T09:12:40.806Z,517.00
2023-01-19T09:13:40.773Z,510.00
2023-01-19T09:14:40.805Z,454.00
2023-01-19T09:15:40.875Z,494.00
2023-01-19T09:16:40.742Z,418.00
2023-01-19T09:17:40.755Z,407.00
2023-01-19T09:18:40.731Z,379.00
2023-01-19T09:19:40.745Z,474.00
2023-01-19T09:20:40.693Z,469.00
2023-01-19T09:21:40.692Z,374.00
2023-01-19T09:22:40.686Z,527.00
2023-01-19T09:23:40.671Z,531.00
2023-01-19T09:24:40.657Z,626.00
2023-01-19T09:25:40.655Z,673.00
2023-01-19T09:26:40.715Z,737.00
2023-01-19T09:27:40.641Z,749.00
2023-01-19T09:28:40.627Z,793.00
2023-01-19T09:29:40.618Z,747.00
2023-01-19T09:30:40.607Z,710.00
2023-01-19T09:31:40.626Z,610.00
2023-01-19T09:32:40.572Z,694.00
2023-01-19T09:33:40.561Z,786.00
2023-01-19T09:34:40.559Z,898.00
2023-01-19T09:35:40.558Z,822.00
2023-01-19T09:36:40.543Z,782.00
2023-01-19T09:37:40.544Z,875.00
2023-01-19T09:38:40.512Z,964.00
2023-01-19T09:39:40.551Z,936.00
2023-01-19T09:40:42.091Z,994.00
2023-01-19T09:41:40.478Z,1182.00
2023-01-19T09:42:40.472Z,1183.00
2023-01-19T09:43:40.462Z,1054.00
2023-01-19T09:44:40.449Z,986.00
2023-01-19T09:45:40.439Z,930.00
2023-01-19T09:46:40.475Z,893.00
2023-01-19T09:47:40.443Z,931.00
2023-01-19T09:48:40.412Z,1214.00
2023-01-19T09:49:40.411Z,1091.00
2023-01-19T09:50:40.390Z,1123.00
2023-01-19T09:51:40.372Z,1001.00
2023-01-19T09:52:40.357Z,960.00
2023-01-19T09:53:40.363Z,1062.00
2023-01-19T09:54:40.371Z,1024.00
2023-01-19T09:55:40.328Z,1025.00
2023-01-19T09:56:40.337Z,1065.00
2023-01-19T09:57:40.317Z,1252.00
2023-01-19T09:58:40.297Z,1359.00
2023-01-19T09:59:40.286Z,1471.00
2023-01-19T10:00:40.315Z,1644.00
2023-01-19T10:01:40.320Z,1821.00
2023-01-19T10:02:40.338Z,1641.00
2023-01-19T10:03:40.255Z,1885.00
2023-01-19T10:04:40.235Z,1803.00
2023-01-19T10:05:40.225Z,1633.00
2023-01-19T10:06:40.205Z,1756.00
2023-01-19T10:07:40.204Z,1844.00
2023-01-19T10:08:40.183Z,1720.00
2023-01-19T10:09:40.195Z,1858.00
2023-01-19T10:10:40.175Z,1936.00
2023-01-19T10:11:51.808Z,2005.00
2023-01-19T10:12:41.200Z,2037.00
2023-01-19T10:13:40.165Z,2117.00
2023-01-19T10:14:40.134Z,2020.00
2023-01-19T10:15:40.174Z,2158.00
2023-01-19T10:16:40.103Z,2279.00
2023-01-19T10:17:40.093Z,2096.00
2023-01-19T10:18:40.086Z,2123.00
2023-01-19T10:19:40.093Z,2347.00
2023-01-19T10:20:40.056Z,1839.00
2023-01-19T10:21:40.084Z,2308.00
2023-01-19T10:22:40.095Z,2193.00
2023-01-19T10:23:40.057Z,2364.00
2023-01-19T10:24:40.028Z,2295.00
2023-01-19T10:25:40.105Z,1881.00
2023-01-19T10:26:40.002Z,1535.00
2023-01-19T10:27:40.009Z,1904.00
2023-01-19T10:28:40.016Z,2231.00
2023-01-19T10:29:40.035Z,1694.00
2023-01-19T10:30:40.061Z,2634.00
2023-01-19T10:31:40.116Z,1944.00
2023-01-19T10:32:39.973Z,1263.00
2023-01-19T10:33:40.033Z,1321.00
2023-01-19T10:34:39.951Z,1686.00
2023-01-19T10:35:39.941Z,2214.00
2023-01-19T10:36:39.926Z,1740.00
2023-01-19T10:37:39.958Z,1927.00
2023-01-19T10:38:39.927Z,1702.00
2023-01-19T10:39:39.984Z,1769.00
2023-01-19T10:40:39.955Z,1426.00
2023-01-19T10:41:39.901Z,1556.00
2023-01-19T10:42:39.907Z,1203.00
2023-01-19T10:43:39.857Z,1232.00
2023-01-19T10:44:39.900Z,953.00
2023-01-19T10:45:39.832Z,734.00
2023-01-19T10:46:39.885Z,636.00
2023-01-19T10:47:39.895Z,901.00
2023-01-19T10:48:39.787Z,1365.00
2023-01-19T10:49:39.832Z,806.00
2023-01-19T10:50:39.992Z,1742.00
2023-01-19T10:51:39.761Z,1636.00
2023-01-19T10:52:39.858Z,2126.00
2023-01-19T10:53:39.762Z,1883.00
2023-01-19T10:54:39.764Z,1360.00
2023-01-19T10:55:39.739Z,1317.00
2023-01-19T10:56:39.733Z,1757.00
2023-01-19T10:57:39.704Z,1530.00
2023-01-19T10:58:39.676Z,724.00
2023-01-19T10:59:39.803Z,2703.00
2023-01-19T11:00:39.751Z,2709.00
2023-01-19T11:01:39.812Z,1373.00
2023-01-19T11:02:39.766Z,3062.00
2023-01-19T11:03:39.649Z,3476.00
2023-01-19T11:04:39.646Z,3615.00
2023-01-19T11:05:39.610Z,2573.00
2023-01-19T11:06:39.597Z,1735.00
2023-01-19T11:07:39.589Z,1992.00
2023-01-19T11:08:39.588Z,2762.00
2023-01-19T11:09:39.556Z,2127.00
2023-01-19T11:10:39.548Z,2417.00
2023-01-19T11:11:39.542Z,1863.00
2023-01-19T11:12:39.614Z,4265.00
2023-01-19T11:13:39.542Z,3289.00
2023-01-19T11:14:39.524Z,3302.00
2023-01-19T11:15:39.511Z,2716.00
2023-01-19T11:16:39.554Z,4108.00
2023-01-19T11:17:39.473Z,3320.00
2023-01-19T11:18:39.505Z,2493.00
2023-01-19T11:19:39.464Z,3169.00
2023-01-19T11:20:39.444Z,2472.00
2023-01-19T11:21:39.442Z,2463.00
2023-01-19T11:22:39.432Z,3314.00
2023-01-19T11:23:39.455Z,3118.00
2023-01-19T11:24:39.412Z,2999.00
2023-01-19T11:25:39.392Z,3030.00
2023-01-19T11:26:39.397Z,2881.00
2023-01-19T11:27:39.376Z,3820.00
2023-01-19T11:28:39.372Z,3991.00
2023-01-19T11:29:39.360Z,3873.00
2023-01-19T11:30:39.397Z,3861.00
2023-01-19T11:31:39.354Z,4130.00
2023-01-19T11:32:39.333Z,3501.00
2023-01-19T11:33:39.321Z,3659.00
2023-01-19T11:34:39.310Z,3073.00
2023-01-19T11:35:39.309Z,4331.00
2023-01-19T11:36:39.310Z,5655.00
2023-01-19T11:37:39.272Z,3638.00
2023-01-19T11:38:39.262Z,3578.00
2023-01-19T11:39:39.252Z,6618.00
2023-01-19T11:40:39.244Z,5469.00
2023-01-19T11:41:39.231Z,3275.00
2023-01-19T11:42:39.249Z,4987.00
2023-01-19T11:43:48.692Z,5588.00
2023-01-19T11:44:40.251Z,4591.00
2023-01-19T11:45:39.219Z,4418.00
2023-01-19T11:46:39.184Z,4852.00
2023-01-19T11:47:39.160Z,4338.00
2023-01-19T11:48:39.152Z,4297.00
2023-01-19T11:49:39.178Z,3831.00
2023-01-19T11:50:39.182Z,5062.00
2023-01-19T11:51:39.139Z,4367.00
2023-01-19T11:52:39.123Z,5363.00
2023-01-19T11:53:39.108Z,4254.00
2023-01-19T11:54:39.111Z,4765.00
2023-01-19T11:55:39.101Z,5997.00
2023-01-19T11:56:39.108Z,4402.00
2023-01-19T11:57:39.066Z,4016.00
2023-01-19T11:58:39.063Z,6087.00
2023-01-19T11:59:39.078Z,6238.00
2023-01-19T12:00:39.036Z,5876.00
2023-01-19T12:01:39.102Z,6971.00
2023-01-19T12:02:39.022Z,7352.00
2023-01-19T12:03:39.048Z,5799.00
2023-01-19T12:04:39.028Z,7132.00
2023-01-19T12:05:38.979Z,6746.00
2023-01-19T12:06:38.967Z,4895.00
2023-01-19T12:07:38.961Z,5471.00
2023-01-19T12:08:38.958Z,6477.00
2023-01-19T12:09:38.941Z,5857.00
2023-01-19T12:10:38.926Z,5278.00
2023-01-19T12:11:38.917Z,3986.00
2023-01-19T12:12:38.928Z,5760.00
2023-01-19T12:13:38.890Z,6311.00
2023-01-19T12:14:38.901Z,4807.00
2023-01-19T12:15:38.902Z,5983.00
2023-01-19T12:16:38.964Z,6096.00
2023-01-19T12:17:38.845Z,7057.00
2023-01-19T12:18:38.846Z,5604.00
2023-01-19T12:19:38.875Z,3983.00
2023-01-19T12:20:38.828Z,6529.00
2023-01-19T12:21:38.824Z,6450.00
2023-01-19T12:22:38.805Z,3784.00
2023-01-19T12:23:38.795Z,5832.00
2023-01-19T12:24:38.870Z,5895.00
2023-01-19T12:25:38.766Z,7099.00
2023-01-19T12:26:38.775Z,5272.00
2023-01-19T12:27:38.745Z,5468.00
2023-01-19T12:28:38.753Z,4398.00
2023-01-19T12:29:38.734Z,3658.00
2023-01-19T12:30:38.846Z,3662.00
2023-01-19T12:31:38.999Z,3039.00
2023-01-19T12:32:38.693Z,5640.00
2023-01-19T12:33:38.688Z,5876.00
2023-01-19T12:34:38.701Z,6333.00
2023-01-19T12:35:38.678Z,5978.00
2023-01-19T12:36:38.674Z,3605.00
2023-01-19T12:37:38.656Z,4629.00
2023-01-19T12:38:38.634Z,4329.00
2023-01-19T12:39:38.638Z,6020.00
2023-01-19T12:40:38.637Z,5492.00
2023-01-19T12:41:38.615Z,4348.00
2023-01-19T12:42:38.591Z,3579.00
2023-01-19T12:43:38.585Z,3582.00
2023-01-19T12:44:38.622Z,2920.00
2023-01-19T12:45:38.563Z,4003.00
2023-01-19T12:46:38.551Z,3950.00
2023-01-19T12:47:38.542Z,4047.00
2023-01-19T12:48:38.543Z,3361.00
2023-01-19T12:49:38.575Z,3221.00
2023-01-19T12:50:38.526Z,5273.00
2023-01-19T12:51:38.517Z,8008.00